sensor_id;sensor_type;location;lat;lon;timestamp;P1;durP1;ratioP1;P2;durP2;ratioP2
79480;SDS011;68944;48.262;14.208;2023-07-13T00:01:45;8.85;;;3.17;;
79480;SDS011;68944;48.262;14.208;2023-07-13T00:04:18;11.25;;;3.35;;
79480;SDS011;68944;48.262;14.208;2023-07-13T00:06:45;13.32;;;4.15;;
79480;SDS011;68944;48.262;14.208;2023-07-13T00:09:15;9.48;;;3.58;;
79480;SDS011;68944;48.262;14.208;2023-07-13T00:11:41;15.63;;;3.25;;
79480;SDS011;68944;48.262;14.208;2023-07-13T00:14:08;11.52;;;3.90;;
79480;SDS011;68944;48.262;14.208;2023-07-13T00:16:38;11.07;;;3.38;;
79480;SDS011;68944;48.262;14.208;2023-07-13T00:19:05;11.48;;;3.10;;
79480;SDS011;68944;48.262;14.208;2023-07-13T00:21:31;10.63;;;3.28;;
79480;SDS011;68944;48.262;14.208;2023-07-13T00:23:57;11.50;;;3.70;;
79480;SDS011;68944;48.262;14.208;2023-07-13T00:26:22;11.85;;;3.40;;
79480;SDS011;68944;48.262;14.208;2023-07-13T00:28:48;10.55;;;3.83;;
79480;SDS011;68944;48.262;14.208;2023-07-13T00:31:14;9.82;;;3.50;;
79480;SDS011;68944;48.262;14.208;2023-07-13T00:33:40;8.02;;;3.55;;
79480;SDS011;68944;48.262;14.208;2023-07-13T00:36:07;10.68;;;3.35;;
79480;SDS011;68944;48.262;14.208;2023-07-13T00:38:33;9.10;;;3.47;;
79480;SDS011;68944;48.262;14.208;2023-07-13T00:40:58;12.65;;;3.10;;
79480;SDS011;68944;48.262;14.208;2023-07-13T00:43:25;11.23;;;3.13;;
79480;SDS011;68944;48.262;14.208;2023-07-13T00:48:19;11.18;;;3.35;;
79480;SDS011;68944;48.262;14.208;2023-07-13T00:50:48;11.38;;;2.70;;
79480;SDS011;68944;48.262;14.208;2023-07-13T00:53:17;14.65;;;2.90;;
79480;SDS011;68944;48.262;14.208;2023-07-13T00:55:43;8.02;;;2.90;;
79480;SDS011;68944;48.262;14.208;2023-07-13T00:58:10;8.05;;;2.78;;
79480;SDS011;68944;48.262;14.208;2023-07-13T01:00:35;9.43;;;3.38;;
79480;SDS011;68944;48.262;14.208;2023-07-13T01:03:03;11.98;;;4.20;;
79480;SDS011;68944;48.262;14.208;2023-07-13T01:05:30;12.38;;;3.60;;
79480;SDS011;68944;48.262;14.208;2023-07-13T01:07:58;12.57;;;3.65;;
79480;SDS011;68944;48.262;14.208;2023-07-13T01:10:25;11.05;;;3.53;;
79480;SDS011;68944;48.262;14.208;2023-07-13T01:12:52;17.60;;;3.67;;
79480;SDS011;68944;48.262;14.208;2023-07-13T01:17:58;16.38;;;4.03;;
79480;SDS011;68944;48.262;14.208;2023-07-13T01:20:24;10.45;;;3.10;;
79480;SDS011;68944;48.262;14.208;2023-07-13T01:22:50;12.60;;;2.95;;
79480;SDS011;68944;48.262;14.208;2023-07-13T01:25:16;8.70;;;3.10;;
79480;SDS011;68944;48.262;14.208;2023-07-13T01:27:42;9.82;;;3.25;;
79480;SDS011;68944;48.262;14.208;2023-07-13T01:30:08;11.00;;;2.75;;
79480;SDS011;68944;48.262;14.208;2023-07-13T01:32:34;11.77;;;3.25;;
79480;SDS011;68944;48.262;14.208;2023-07-13T01:35:02;9.05;;;3.10;;
79480;SDS011;68944;48.262;14.208;2023-07-13T01:37:28;12.98;;;3.22;;
79480;SDS011;68944;48.262;14.208;2023-07-13T01:39:58;9.85;;;3.25;;
79480;SDS011;68944;48.262;14.208;2023-07-13T01:42:24;9.00;;;3.60;;
79480;SDS011;68944;48.262;14.208;2023-07-13T01:44:50;8.85;;;3.40;;
79480;SDS011;68944;48.262;14.208;2023-07-13T01:47:15;12.45;;;4.20;;
79480;SDS011;68944;48.262;14.208;2023-07-13T01:49:41;11.73;;;4.22;;
79480;SDS011;68944;48.262;14.208;2023-07-13T01:52:07;10.38;;;4.22;;
79480;SDS011;68944;48.262;14.208;2023-07-13T01:54:32;10.23;;;3.80;;
79480;SDS011;68944;48.262;14.208;2023-07-13T01:56:59;15.25;;;3.78;;
79480;SDS011;68944;48.262;14.208;2023-07-13T01:59:25;11.95;;;4.18;;
79480;SDS011;68944;48.262;14.208;2023-07-13T02:01:50;10.68;;;3.72;;
79480;SDS011;68944;48.262;14.208;2023-07-13T02:04:16;10.75;;;3.22;;
79480;SDS011;68944;48.262;14.208;2023-07-13T02:06:41;9.07;;;3.33;;
79480;SDS011;68944;48.262;14.208;2023-07-13T02:09:07;10.07;;;3.70;;
79480;SDS011;68944;48.262;14.208;2023-07-13T02:11:32;12.20;;;3.67;;
79480;SDS011;68944;48.262;14.208;2023-07-13T02:13:59;9.88;;;3.58;;
79480;SDS011;68944;48.262;14.208;2023-07-13T02:16:26;9.77;;;3.70;;
79480;SDS011;68944;48.262;14.208;2023-07-13T02:18:52;9.93;;;3.60;;
79480;SDS011;68944;48.262;14.208;2023-07-13T02:21:18;12.25;;;4.28;;
79480;SDS011;68944;48.262;14.208;2023-07-13T02:23:43;12.60;;;3.78;;
79480;SDS011;68944;48.262;14.208;2023-07-13T02:26:09;11.15;;;3.90;;
79480;SDS011;68944;48.262;14.208;2023-07-13T02:28:35;12.70;;;4.78;;
79480;SDS011;68944;48.262;14.208;2023-07-13T02:31:07;11.25;;;3.90;;
79480;SDS011;68944;48.262;14.208;2023-07-13T02:33:34;10.32;;;4.35;;
79480;SDS011;68944;48.262;14.208;2023-07-13T02:36:00;9.05;;;4.10;;
79480;SDS011;68944;48.262;14.208;2023-07-13T02:38:25;12.15;;;4.18;;
79480;SDS011;68944;48.262;14.208;2023-07-13T02:40:51;13.23;;;4.40;;
79480;SDS011;68944;48.262;14.208;2023-07-13T02:43:18;13.52;;;4.35;;
79480;SDS011;68944;48.262;14.208;2023-07-13T02:45:46;17.05;;;4.32;;
79480;SDS011;68944;48.262;14.208;2023-07-13T02:48:13;9.18;;;4.32;;
79480;SDS011;68944;48.262;14.208;2023-07-13T02:50:39;14.95;;;4.47;;
79480;SDS011;68944;48.262;14.208;2023-07-13T02:53:04;12.93;;;4.18;;
79480;SDS011;68944;48.262;14.208;2023-07-13T02:55:30;9.95;;;4.85;;
79480;SDS011;68944;48.262;14.208;2023-07-13T02:57:56;10.77;;;4.18;;
79480;SDS011;68944;48.262;14.208;2023-07-13T03:00:22;14.05;;;4.40;;
79480;SDS011;68944;48.262;14.208;2023-07-13T03:02:48;12.73;;;4.75;;
79480;SDS011;68944;48.262;14.208;2023-07-13T03:05:13;10.95;;;4.38;;
79480;SDS011;68944;48.262;14.208;2023-07-13T03:07:41;14.60;;;4.35;;
79480;SDS011;68944;48.262;14.208;2023-07-13T03:10:08;11.98;;;4.45;;
79480;SDS011;68944;48.262;14.208;2023-07-13T03:12:41;12.05;;;4.07;;
79480;SDS011;68944;48.262;14.208;2023-07-13T03:15:14;13.45;;;4.50;;
79480;SDS011;68944;48.262;14.208;2023-07-13T03:17:42;9.43;;;4.13;;
79480;SDS011;68944;48.262;14.208;2023-07-13T03:20:08;12.50;;;4.70;;
79480;SDS011;68944;48.262;14.208;2023-07-13T03:22:35;13.20;;;4.30;;
79480;SDS011;68944;48.262;14.208;2023-07-13T03:25:00;9.98;;;4.20;;
79480;SDS011;68944;48.262;14.208;2023-07-13T03:27:26;11.57;;;4.45;;
79480;SDS011;68944;48.262;14.208;2023-07-13T03:29:52;14.95;;;4.53;;
79480;SDS011;68944;48.262;14.208;2023-07-13T03:32:17;12.50;;;4.10;;
79480;SDS011;68944;48.262;14.208;2023-07-13T03:34:43;16.38;;;5.50;;
79480;SDS011;68944;48.262;14.208;2023-07-13T03:37:08;13.35;;;4.70;;
79480;SDS011;68944;48.262;14.208;2023-07-13T03:39:35;10.95;;;4.32;;
79480;SDS011;68944;48.262;14.208;2023-07-13T03:42:01;11.80;;;4.57;;
79480;SDS011;68944;48.262;14.208;2023-07-13T03:44:27;14.43;;;4.55;;
79480;SDS011;68944;48.262;14.208;2023-07-13T03:46:55;12.30;;;4.70;;
79480;SDS011;68944;48.262;14.208;2023-07-13T03:49:20;11.43;;;4.57;;
79480;SDS011;68944;48.262;14.208;2023-07-13T03:51:46;16.45;;;5.20;;
79480;SDS011;68944;48.262;14.208;2023-07-13T03:54:12;15.75;;;5.60;;
79480;SDS011;68944;48.262;14.208;2023-07-13T03:56:37;18.00;;;10.07;;
79480;SDS011;68944;48.262;14.208;2023-07-13T03:59:05;14.60;;;6.93;;
79480;SDS011;68944;48.262;14.208;2023-07-13T04:01:31;13.10;;;5.13;;
79480;SDS011;68944;48.262;14.208;2023-07-13T04:03:57;11.00;;;5.50;;
79480;SDS011;68944;48.262;14.208;2023-07-13T04:06:26;11.60;;;5.45;;
79480;SDS011;68944;48.262;14.208;2023-07-13T04:08:54;12.02;;;5.03;;
79480;SDS011;68944;48.262;14.208;2023-07-13T04:11:21;13.85;;;4.53;;
79480;SDS011;68944;48.262;14.208;2023-07-13T04:13:49;14.05;;;3.92;;
79480;SDS011;68944;48.262;14.208;2023-07-13T04:16:16;12.10;;;4.43;;
79480;SDS011;68944;48.262;14.208;2023-07-13T04:18:43;14.48;;;4.72;;
79480;SDS011;68944;48.262;14.208;2023-07-13T04:21:09;11.52;;;5.50;;
79480;SDS011;68944;48.262;14.208;2023-07-13T04:23:36;11.32;;;5.90;;
79480;SDS011;68944;48.262;14.208;2023-07-13T04:26:02;17.60;;;6.18;;
79480;SDS011;68944;48.262;14.208;2023-07-13T04:28:27;16.80;;;7.00;;
79480;SDS011;68944;48.262;14.208;2023-07-13T04:30:53;16.95;;;5.53;;
79480;SDS011;68944;48.262;14.208;2023-07-13T04:33:19;15.07;;;5.47;;
79480;SDS011;68944;48.262;14.208;2023-07-13T04:35:51;11.90;;;5.03;;
79480;SDS011;68944;48.262;14.208;2023-07-13T04:38:31;13.65;;;5.32;;
79480;SDS011;68944;48.262;14.208;2023-07-13T04:40:59;15.45;;;6.90;;
79480;SDS011;68944;48.262;14.208;2023-07-13T04:43:26;13.23;;;4.65;;
79480;SDS011;68944;48.262;14.208;2023-07-13T04:45:53;10.63;;;5.13;;
79480;SDS011;68944;48.262;14.208;2023-07-13T04:48:19;13.20;;;5.85;;
79480;SDS011;68944;48.262;14.208;2023-07-13T04:50:45;12.50;;;5.30;;
79480;SDS011;68944;48.262;14.208;2023-07-13T04:53:11;23.40;;;11.55;;
79480;SDS011;68944;48.262;14.208;2023-07-13T04:55:37;15.95;;;6.50;;
79480;SDS011;68944;48.262;14.208;2023-07-13T04:58:02;13.63;;;5.25;;
79480;SDS011;68944;48.262;14.208;2023-07-13T05:00:29;13.00;;;4.68;;
79480;SDS011;68944;48.262;14.208;2023-07-13T05:02:55;15.45;;;4.75;;
79480;SDS011;68944;48.262;14.208;2023-07-13T05:05:22;16.45;;;5.65;;
79480;SDS011;68944;48.262;14.208;2023-07-13T05:07:49;12.18;;;5.30;;
79480;SDS011;68944;48.262;14.208;2023-07-13T05:10:15;12.93;;;4.82;;
79480;SDS011;68944;48.262;14.208;2023-07-13T05:12:40;10.65;;;4.20;;
79480;SDS011;68944;48.262;14.208;2023-07-13T05:15:06;11.63;;;5.28;;
79480;SDS011;68944;48.262;14.208;2023-07-13T05:17:32;12.45;;;4.03;;
79480;SDS011;68944;48.262;14.208;2023-07-13T05:19:57;9.85;;;4.50;;
79480;SDS011;68944;48.262;14.208;2023-07-13T05:22:23;10.75;;;4.10;;
79480;SDS011;68944;48.262;14.208;2023-07-13T05:24:48;11.30;;;3.75;;
79480;SDS011;68944;48.262;14.208;2023-07-13T05:27:14;11.48;;;4.20;;
79480;SDS011;68944;48.262;14.208;2023-07-13T05:29:40;8.40;;;3.88;;
79480;SDS011;68944;48.262;14.208;2023-07-13T05:32:06;13.70;;;4.78;;
79480;SDS011;68944;48.262;14.208;2023-07-13T05:34:31;10.80;;;4.25;;
79480;SDS011;68944;48.262;14.208;2023-07-13T05:36:57;11.40;;;3.90;;
79480;SDS011;68944;48.262;14.208;2023-07-13T05:39:22;10.40;;;4.18;;
79480;SDS011;68944;48.262;14.208;2023-07-13T05:41:48;9.40;;;4.13;;
79480;SDS011;68944;48.262;14.208;2023-07-13T05:44:14;9.60;;;4.00;;
79480;SDS011;68944;48.262;14.208;2023-07-13T05:46:39;11.07;;;3.80;;
79480;SDS011;68944;48.262;14.208;2023-07-13T05:49:05;10.90;;;4.20;;
79480;SDS011;68944;48.262;14.208;2023-07-13T05:51:30;10.27;;;4.40;;
79480;SDS011;68944;48.262;14.208;2023-07-13T05:53:55;11.85;;;4.25;;
79480;SDS011;68944;48.262;14.208;2023-07-13T05:56:21;10.10;;;4.30;;
79480;SDS011;68944;48.262;14.208;2023-07-13T05:58:47;10.60;;;4.07;;
79480;SDS011;68944;48.262;14.208;2023-07-13T06:01:14;9.77;;;4.43;;
79480;SDS011;68944;48.262;14.208;2023-07-13T06:03:40;10.23;;;4.68;;
79480;SDS011;68944;48.262;14.208;2023-07-13T06:06:07;11.70;;;5.60;;
79480;SDS011;68944;48.262;14.208;2023-07-13T06:08:34;11.02;;;4.28;;
79480;SDS011;68944;48.262;14.208;2023-07-13T06:11:02;10.85;;;4.32;;
79480;SDS011;68944;48.262;14.208;2023-07-13T06:13:39;12.43;;;4.50;;
79480;SDS011;68944;48.262;14.208;2023-07-13T06:16:05;12.18;;;4.70;;
79480;SDS011;68944;48.262;14.208;2023-07-13T06:18:32;10.07;;;4.32;;
79480;SDS011;68944;48.262;14.208;2023-07-13T06:20:58;9.73;;;4.38;;
79480;SDS011;68944;48.262;14.208;2023-07-13T06:23:24;9.80;;;4.70;;
79480;SDS011;68944;48.262;14.208;2023-07-13T06:25:50;9.48;;;3.90;;
79480;SDS011;68944;48.262;14.208;2023-07-13T06:28:15;9.60;;;3.97;;
79480;SDS011;68944;48.262;14.208;2023-07-13T06:30:41;9.90;;;4.00;;
79480;SDS011;68944;48.262;14.208;2023-07-13T06:33:06;14.55;;;3.97;;
79480;SDS011;68944;48.262;14.208;2023-07-13T06:35:31;14.30;;;4.28;;
79480;SDS011;68944;48.262;14.208;2023-07-13T06:37:57;11.15;;;4.50;;
79480;SDS011;68944;48.262;14.208;2023-07-13T06:40:22;11.20;;;4.93;;
79480;SDS011;68944;48.262;14.208;2023-07-13T06:42:48;11.13;;;4.50;;
79480;SDS011;68944;48.262;14.208;2023-07-13T06:45:13;9.55;;;4.90;;
79480;SDS011;68944;48.262;14.208;2023-07-13T06:47:39;10.38;;;4.22;;
79480;SDS011;68944;48.262;14.208;2023-07-13T06:50:05;9.95;;;4.50;;
79480;SDS011;68944;48.262;14.208;2023-07-13T06:52:31;8.98;;;4.20;;
79480;SDS011;68944;48.262;14.208;2023-07-13T06:54:56;10.05;;;4.63;;
79480;SDS011;68944;48.262;14.208;2023-07-13T06:57:21;9.13;;;3.90;;
79480;SDS011;68944;48.262;14.208;2023-07-13T06:59:47;11.43;;;4.15;;
79480;SDS011;68944;48.262;14.208;2023-07-13T07:02:13;9.15;;;3.53;;
79480;SDS011;68944;48.262;14.208;2023-07-13T07:04:38;7.70;;;3.03;;
79480;SDS011;68944;48.262;14.208;2023-07-13T07:07:04;8.95;;;3.70;;
79480;SDS011;68944;48.262;14.208;2023-07-13T07:09:29;9.20;;;3.50;;
79480;SDS011;68944;48.262;14.208;2023-07-13T07:11:56;8.88;;;3.08;;
79480;SDS011;68944;48.262;14.208;2023-07-13T07:14:22;11.05;;;3.30;;
79480;SDS011;68944;48.262;14.208;2023-07-13T07:16:49;6.22;;;2.45;;
79480;SDS011;68944;48.262;14.208;2023-07-13T07:19:15;7.57;;;2.67;;
79480;SDS011;68944;48.262;14.208;2023-07-13T07:21:41;7.25;;;2.63;;
79480;SDS011;68944;48.262;14.208;2023-07-13T07:24:07;7.35;;;2.42;;
79480;SDS011;68944;48.262;14.208;2023-07-13T07:26:32;8.25;;;2.53;;
79480;SDS011;68944;48.262;14.208;2023-07-13T07:28:58;7.07;;;2.83;;
79480;SDS011;68944;48.262;14.208;2023-07-13T07:31:24;5.55;;;2.50;;
79480;SDS011;68944;48.262;14.208;2023-07-13T07:33:49;10.20;;;2.60;;
79480;SDS011;68944;48.262;14.208;2023-07-13T07:36:15;8.30;;;2.90;;
79480;SDS011;68944;48.262;14.208;2023-07-13T07:38:42;8.80;;;2.70;;
79480;SDS011;68944;48.262;14.208;2023-07-13T07:41:09;7.25;;;3.00;;
79480;SDS011;68944;48.262;14.208;2023-07-13T07:43:35;8.15;;;3.00;;
79480;SDS011;68944;48.262;14.208;2023-07-13T07:46:01;7.00;;;2.90;;
79480;SDS011;68944;48.262;14.208;2023-07-13T07:48:27;7.65;;;2.85;;
79480;SDS011;68944;48.262;14.208;2023-07-13T07:50:53;7.97;;;3.35;;
79480;SDS011;68944;48.262;14.208;2023-07-13T07:53:18;8.20;;;3.17;;
79480;SDS011;68944;48.262;14.208;2023-07-13T07:55:44;8.45;;;3.00;;
79480;SDS011;68944;48.262;14.208;2023-07-13T07:58:10;9.15;;;3.13;;
79480;SDS011;68944;48.262;14.208;2023-07-13T08:00:36;6.72;;;2.92;;
79480;SDS011;68944;48.262;14.208;2023-07-13T08:03:01;8.30;;;2.95;;
79480;SDS011;68944;48.262;14.208;2023-07-13T08:05:27;8.25;;;3.00;;
79480;SDS011;68944;48.262;14.208;2023-07-13T08:07:53;8.48;;;3.33;;
79480;SDS011;68944;48.262;14.208;2023-07-13T08:10:19;8.13;;;3.30;;
79480;SDS011;68944;48.262;14.208;2023-07-13T08:12:45;8.25;;;2.85;;
79480;SDS011;68944;48.262;14.208;2023-07-13T08:15:11;6.70;;;3.05;;
79480;SDS011;68944;48.262;14.208;2023-07-13T08:17:38;7.82;;;3.72;;
79480;SDS011;68944;48.262;14.208;2023-07-13T08:20:04;9.98;;;3.28;;
79480;SDS011;68944;48.262;14.208;2023-07-13T08:22:30;9.50;;;3.72;;
79480;SDS011;68944;48.262;14.208;2023-07-13T08:24:55;11.13;;;3.10;;
79480;SDS011;68944;48.262;14.208;2023-07-13T08:27:24;5.90;;;2.78;;
79480;SDS011;68944;48.262;14.208;2023-07-13T08:29:51;8.07;;;3.33;;
79480;SDS011;68944;48.262;14.208;2023-07-13T08:32:18;7.65;;;2.63;;
79480;SDS011;68944;48.262;14.208;2023-07-13T08:34:45;7.05;;;2.83;;
79480;SDS011;68944;48.262;14.208;2023-07-13T08:37:10;9.80;;;3.38;;
79480;SDS011;68944;48.262;14.208;2023-07-13T08:39:36;9.30;;;3.38;;
79480;SDS011;68944;48.262;14.208;2023-07-13T08:42:05;8.00;;;3.22;;
79480;SDS011;68944;48.262;14.208;2023-07-13T08:44:43;6.47;;;2.63;;
79480;SDS011;68944;48.262;14.208;2023-07-13T08:47:26;8.75;;;2.88;;
79480;SDS011;68944;48.262;14.208;2023-07-13T08:49:56;9.05;;;3.53;;
79480;SDS011;68944;48.262;14.208;2023-07-13T08:52:31;6.63;;;2.60;;
79480;SDS011;68944;48.262;14.208;2023-07-13T08:55:05;14.40;;;2.97;;
79480;SDS011;68944;48.262;14.208;2023-07-13T08:57:38;8.35;;;2.85;;
79480;SDS011;68944;48.262;14.208;2023-07-13T09:00:11;11.20;;;3.40;;
79480;SDS011;68944;48.262;14.208;2023-07-13T09:02:46;9.75;;;3.08;;
79480;SDS011;68944;48.262;14.208;2023-07-13T09:05:19;9.30;;;3.00;;
79480;SDS011;68944;48.262;14.208;2023-07-13T09:07:57;7.07;;;3.05;;
79480;SDS011;68944;48.262;14.208;2023-07-13T09:10:26;10.18;;;3.00;;
79480;SDS011;68944;48.262;14.208;2023-07-13T09:15:25;6.65;;;2.70;;
79480;SDS011;68944;48.262;14.208;2023-07-13T09:17:56;8.10;;;2.83;;
79480;SDS011;68944;48.262;14.208;2023-07-13T09:20:43;9.77;;;3.47;;
79480;SDS011;68944;48.262;14.208;2023-07-13T09:23:17;7.85;;;2.63;;
79480;SDS011;68944;48.262;14.208;2023-07-13T09:25:51;6.55;;;3.03;;
79480;SDS011;68944;48.262;14.208;2023-07-13T09:28:25;10.00;;;3.58;;
79480;SDS011;68944;48.262;14.208;2023-07-13T09:31:01;7.80;;;2.75;;
79480;SDS011;68944;48.262;14.208;2023-07-13T09:33:35;8.95;;;3.00;;
79480;SDS011;68944;48.262;14.208;2023-07-13T09:36:00;8.25;;;3.10;;
79480;SDS011;68944;48.262;14.208;2023-07-13T09:38:27;6.85;;;2.78;;
79480;SDS011;68944;48.262;14.208;2023-07-13T09:43:39;7.18;;;2.58;;
79480;SDS011;68944;48.262;14.208;2023-07-13T09:46:04;7.18;;;3.25;;
79480;SDS011;68944;48.262;14.208;2023-07-13T09:48:44;10.45;;;3.22;;
79480;SDS011;68944;48.262;14.208;2023-07-13T09:51:13;8.65;;;3.40;;
79480;SDS011;68944;48.262;14.208;2023-07-13T09:53:41;8.38;;;3.00;;
79480;SDS011;68944;48.262;14.208;2023-07-13T09:56:11;12.10;;;3.20;;
79480;SDS011;68944;48.262;14.208;2023-07-13T09:58:45;7.18;;;2.90;;
79480;SDS011;68944;48.262;14.208;2023-07-13T10:01:10;7.68;;;2.70;;
79480;SDS011;68944;48.262;14.208;2023-07-13T10:03:36;6.57;;;2.72;;
79480;SDS011;68944;48.262;14.208;2023-07-13T10:06:14;8.43;;;2.83;;
79480;SDS011;68944;48.262;14.208;2023-07-13T10:08:41;8.23;;;3.00;;
79480;SDS011;68944;48.262;14.208;2023-07-13T10:11:11;7.80;;;2.85;;
79480;SDS011;68944;48.262;14.208;2023-07-13T10:13:43;8.18;;;2.67;;
79480;SDS011;68944;48.262;14.208;2023-07-13T10:16:21;7.97;;;2.70;;
79480;SDS011;68944;48.262;14.208;2023-07-13T10:18:57;8.10;;;2.63;;
79480;SDS011;68944;48.262;14.208;2023-07-13T10:21:28;9.07;;;2.85;;
79480;SDS011;68944;48.262;14.208;2023-07-13T10:24:06;7.80;;;2.90;;
79480;SDS011;68944;48.262;14.208;2023-07-13T10:26:42;8.13;;;2.83;;
79480;SDS011;68944;48.262;14.208;2023-07-13T10:29:14;8.68;;;2.83;;
79480;SDS011;68944;48.262;14.208;2023-07-13T10:31:41;8.88;;;2.58;;
79480;SDS011;68944;48.262;14.208;2023-07-13T10:34:10;7.40;;;2.78;;
79480;SDS011;68944;48.262;14.208;2023-07-13T10:39:04;9.13;;;2.60;;
79480;SDS011;68944;48.262;14.208;2023-07-13T10:41:31;10.85;;;2.80;;
79480;SDS011;68944;48.262;14.208;2023-07-13T10:44:00;7.53;;;2.70;;
79480;SDS011;68944;48.262;14.208;2023-07-13T10:46:28;7.20;;;3.05;;
79480;SDS011;68944;48.262;14.208;2023-07-13T10:48:59;6.72;;;2.70;;
79480;SDS011;68944;48.262;14.208;2023-07-13T10:51:29;7.47;;;3.00;;
79480;SDS011;68944;48.262;14.208;2023-07-13T11:01:54;7.03;;;2.38;;
79480;SDS011;68944;48.262;14.208;2023-07-13T11:04:42;8.35;;;2.72;;
79480;SDS011;68944;48.262;14.208;2023-07-13T11:07:11;13.25;;;2.80;;
79480;SDS011;68944;48.262;14.208;2023-07-13T11:09:46;7.72;;;2.30;;
79480;SDS011;68944;48.262;14.208;2023-07-13T11:15:04;6.05;;;2.50;;
79480;SDS011;68944;48.262;14.208;2023-07-13T11:27:46;6.75;;;2.72;;
79480;SDS011;68944;48.262;14.208;2023-07-13T11:30:30;9.38;;;2.40;;
79480;SDS011;68944;48.262;14.208;2023-07-13T11:33:17;8.45;;;2.80;;
79480;SDS011;68944;48.262;14.208;2023-07-13T11:41:04;6.82;;;2.20;;
79480;SDS011;68944;48.262;14.208;2023-07-13T11:43:51;6.82;;;2.30;;
79480;SDS011;68944;48.262;14.208;2023-07-13T11:46:23;6.75;;;2.42;;
79480;SDS011;68944;48.262;14.208;2023-07-13T11:48:52;7.82;;;2.58;;
79480;SDS011;68944;48.262;14.208;2023-07-13T11:51:22;5.80;;;2.15;;
79480;SDS011;68944;48.262;14.208;2023-07-13T11:53:53;11.20;;;2.35;;
79480;SDS011;68944;48.262;14.208;2023-07-13T11:56:20;5.80;;;1.98;;
79480;SDS011;68944;48.262;14.208;2023-07-13T11:58:51;7.45;;;2.28;;
79480;SDS011;68944;48.262;14.208;2023-07-13T12:01:21;6.82;;;2.33;;
79480;SDS011;68944;48.262;14.208;2023-07-13T12:03:49;6.55;;;2.30;;
79480;SDS011;68944;48.262;14.208;2023-07-13T12:06:48;6.85;;;2.33;;
79480;SDS011;68944;48.262;14.208;2023-07-13T12:09:11;8.80;;;2.47;;
79480;SDS011;68944;48.262;14.208;2023-07-13T12:11:40;7.65;;;2.60;;
79480;SDS011;68944;48.262;14.208;2023-07-13T12:14:12;8.60;;;2.60;;
79480;SDS011;68944;48.262;14.208;2023-07-13T12:16:40;7.95;;;2.65;;
79480;SDS011;68944;48.262;14.208;2023-07-13T12:19:09;6.57;;;2.58;;
79480;SDS011;68944;48.262;14.208;2023-07-13T12:21:44;5.82;;;2.50;;
79480;SDS011;68944;48.262;14.208;2023-07-13T12:24:17;7.88;;;2.58;;
79480;SDS011;68944;48.262;14.208;2023-07-13T12:26:44;7.85;;;2.40;;
79480;SDS011;68944;48.262;14.208;2023-07-13T12:29:16;8.52;;;2.15;;
79480;SDS011;68944;48.262;14.208;2023-07-13T12:31:43;6.13;;;2.33;;
79480;SDS011;68944;48.262;14.208;2023-07-13T12:34:12;6.38;;;2.58;;
79480;SDS011;68944;48.262;14.208;2023-07-13T12:36:46;7.38;;;2.70;;
79480;SDS011;68944;48.262;14.208;2023-07-13T12:39:37;6.65;;;2.55;;
79480;SDS011;68944;48.262;14.208;2023-07-13T12:42:20;9.07;;;2.78;;
79480;SDS011;68944;48.262;14.208;2023-07-13T12:45:05;6.75;;;2.80;;
79480;SDS011;68944;48.262;14.208;2023-07-13T12:47:43;10.18;;;2.90;;
79480;SDS011;68944;48.262;14.208;2023-07-13T12:50:22;11.45;;;2.72;;
79480;SDS011;68944;48.262;14.208;2023-07-13T12:52:53;8.00;;;2.30;;
79480;SDS011;68944;48.262;14.208;2023-07-13T12:55:21;11.88;;;2.33;;
79480;SDS011;68944;48.262;14.208;2023-07-13T13:02:53;11.35;;;2.40;;
79480;SDS011;68944;48.262;14.208;2023-07-13T13:05:21;6.22;;;2.13;;
79480;SDS011;68944;48.262;14.208;2023-07-13T13:07:49;8.65;;;2.38;;
79480;SDS011;68944;48.262;14.208;2023-07-13T13:10:15;8.50;;;2.70;;
79480;SDS011;68944;48.262;14.208;2023-07-13T13:12:40;7.50;;;2.67;;
79480;SDS011;68944;48.262;14.208;2023-07-13T13:15:12;7.47;;;2.42;;
79480;SDS011;68944;48.262;14.208;2023-07-13T13:17:38;8.40;;;2.53;;
79480;SDS011;68944;48.262;14.208;2023-07-13T13:20:22;7.53;;;2.50;;
79480;SDS011;68944;48.262;14.208;2023-07-13T13:22:48;6.88;;;2.03;;
79480;SDS011;68944;48.262;14.208;2023-07-13T13:25:14;6.32;;;2.45;;
79480;SDS011;68944;48.262;14.208;2023-07-13T13:27:40;8.77;;;2.20;;
79480;SDS011;68944;48.262;14.208;2023-07-13T13:30:17;9.75;;;2.63;;
79480;SDS011;68944;48.262;14.208;2023-07-13T13:32:44;10.68;;;2.75;;
79480;SDS011;68944;48.262;14.208;2023-07-13T13:35:15;8.52;;;2.30;;
79480;SDS011;68944;48.262;14.208;2023-07-13T13:37:43;9.13;;;2.20;;
79480;SDS011;68944;48.262;14.208;2023-07-13T13:40:16;8.35;;;2.40;;
79480;SDS011;68944;48.262;14.208;2023-07-13T13:42:43;8.43;;;2.30;;
79480;SDS011;68944;48.262;14.208;2023-07-13T13:45:09;7.70;;;2.42;;
79480;SDS011;68944;48.262;14.208;2023-07-13T13:47:37;13.65;;;2.80;;
79480;SDS011;68944;48.262;14.208;2023-07-13T13:50:13;10.20;;;2.40;;
79480;SDS011;68944;48.262;14.208;2023-07-13T13:52:41;10.60;;;2.92;;
79480;SDS011;68944;48.262;14.208;2023-07-13T13:55:13;7.28;;;2.03;;
79480;SDS011;68944;48.262;14.208;2023-07-13T13:57:40;9.95;;;2.97;;
79480;SDS011;68944;48.262;14.208;2023-07-13T14:00:08;8.55;;;2.55;;
79480;SDS011;68944;48.262;14.208;2023-07-13T14:02:36;10.00;;;2.25;;
79480;SDS011;68944;48.262;14.208;2023-07-13T14:05:02;9.25;;;2.45;;
79480;SDS011;68944;48.262;14.208;2023-07-13T14:07:29;5.60;;;1.90;;
79480;SDS011;68944;48.262;14.208;2023-07-13T14:09:56;8.25;;;2.40;;
79480;SDS011;68944;48.262;14.208;2023-07-13T14:12:23;8.82;;;2.00;;
79480;SDS011;68944;48.262;14.208;2023-07-13T14:14:53;7.00;;;1.90;;
79480;SDS011;68944;48.262;14.208;2023-07-13T14:17:20;9.55;;;1.90;;
79480;SDS011;68944;48.262;14.208;2023-07-13T14:19:51;7.63;;;2.10;;
79480;SDS011;68944;48.262;14.208;2023-07-13T14:22:22;7.45;;;2.20;;
79480;SDS011;68944;48.262;14.208;2023-07-13T14:24:51;5.35;;;1.70;;
79480;SDS011;68944;48.262;14.208;2023-07-13T14:27:18;6.65;;;1.60;;
79480;SDS011;68944;48.262;14.208;2023-07-13T14:29:44;6.35;;;1.90;;
79480;SDS011;68944;48.262;14.208;2023-07-13T14:32:10;6.43;;;1.80;;
79480;SDS011;68944;48.262;14.208;2023-07-13T14:34:37;4.88;;;1.90;;
79480;SDS011;68944;48.262;14.208;2023-07-13T14:37:03;8.18;;;1.98;;
79480;SDS011;68944;48.262;14.208;2023-07-13T14:39:29;6.15;;;2.15;;
79480;SDS011;68944;48.262;14.208;2023-07-13T14:41:55;7.45;;;2.13;;
79480;SDS011;68944;48.262;14.208;2023-07-13T14:44:24;8.30;;;1.80;;
79480;SDS011;68944;48.262;14.208;2023-07-13T14:46:51;6.75;;;2.00;;
79480;SDS011;68944;48.262;14.208;2023-07-13T14:49:37;6.07;;;1.80;;
79480;SDS011;68944;48.262;14.208;2023-07-13T14:52:15;7.38;;;2.25;;
79480;SDS011;68944;48.262;14.208;2023-07-13T14:54:43;8.40;;;2.53;;
79480;SDS011;68944;48.262;14.208;2023-07-13T14:57:12;7.85;;;1.80;;
79480;SDS011;68944;48.262;14.208;2023-07-13T14:59:40;6.47;;;2.00;;
79480;SDS011;68944;48.262;14.208;2023-07-13T15:02:13;5.30;;;1.70;;
79480;SDS011;68944;48.262;14.208;2023-07-13T15:04:41;8.93;;;2.05;;
79480;SDS011;68944;48.262;14.208;2023-07-13T15:07:07;8.02;;;1.70;;
79480;SDS011;68944;48.262;14.208;2023-07-13T15:09:35;6.78;;;2.15;;
79480;SDS011;68944;48.262;14.208;2023-07-13T15:12:01;5.97;;;1.67;;
79480;SDS011;68944;48.262;14.208;2023-07-13T15:14:26;5.78;;;1.63;;
79480;SDS011;68944;48.262;14.208;2023-07-13T15:16:53;7.90;;;1.65;;
79480;SDS011;68944;48.262;14.208;2023-07-13T15:19:20;6.57;;;1.90;;